Latest Weather Observations for Mount Crawford

IDS60901

Issued at 4:15 pm CST Friday 25 July 2014 (issued every 10 minutes, with the page automatically refreshed every 10 minutes)

About weather observations | Map of Adelaide area stations | Latest observations for Adelaide area | Other Formats
Station Details ID: 023878 Name: MT CRAWFORD AWS Lat: -34.73 Lon: 138.93 Height: 525.0 m
Data from the previous 72 hours. | See also: Recent months at Mount Crawford
Date/Time
CST
Tmp

°C
App
Tmp
°C
Dew
Point
°C
Rel
Hum
%
Delta-T

°C
Wind Press
QNH
hPa
Press
MSL
hPa
Rain
since
9 am
mm
Dir
 
Spd
km/h
Gust
km/h
Spd
kts
Gust
kts
25/04:00pm 9.8 6.0 9.8 100 0.0 W 20 28 11 15 1018.8 - 7.2
25/03:30pm 9.8 5.6 9.8 100 0.0 WNW 22 32 12 17 1018.5 1019.0 7.2
25/03:00pm 9.8 6.2 9.8 100 0.0 WNW 19 28 10 15 1018.1 1018.6 7.2
25/02:30pm 9.6 5.4 9.6 100 0.0 W 22 33 12 18 1018.0 1018.5 7.2
25/02:00pm 9.6 6.3 9.6 100 0.0 W 17 24 9 13 1017.8 - 7.2
25/01:30pm 9.5 6.6 9.5 100 0.0 W 15 20 8 11 1017.9 1018.4 6.2
25/01:00pm 9.4 5.5 9.4 100 0.0 WNW 20 32 11 17 1018.0 - 3.2
25/12:30pm 9.4 5.7 9.4 100 0.0 WNW 19 26 10 14 1018.0 1018.5 2.4
25/12:00pm 9.0 5.6 9.0 100 0.0 WNW 17 22 9 12 1018.3 1018.8 0.6
25/11:30am 8.7 5.2 8.7 100 0.0 WNW 17 24 9 13 1018.5 1019.0 0.6
25/11:00am 8.4 4.8 8.4 100 0.0 WNW 17 22 9 12 1018.4 - 0.4
25/10:30am 8.2 4.9 8.2 100 0.0 WNW 15 20 8 11 1018.4 1018.9 0.4
25/10:00am 8.3 4.3 8.3 100 0.0 WNW 19 24 10 13 1018.1 - 0.0
25/09:30am 7.9 4.2 7.9 100 0.0 WNW 17 22 9 12 1017.6 1018.0 0.0
25/09:00am 7.8 3.5 7.8 100 0.0 WNW 20 24 11 13 1017.2 1017.6 13.0
25/08:30am 7.8 3.1 7.8 100 0.0 WNW 22 30 12 16 1016.8 1017.3 12.6
25/08:00am 8.0 3.7 8.0 100 0.0 WNW 20 30 11 16 1016.4 - 12.4
25/07:30am 8.0 3.0 8.0 100 0.0 WNW 24 33 13 18 1015.9 1016.3 12.4
25/07:00am 8.0 3.0 8.0 100 0.0 W 24 35 13 19 1015.5 - 12.4
25/06:30am 8.2 2.8 8.2 100 0.0 W 26 37 14 20 1014.8 1015.3 12.4
25/06:00am 8.3 3.4 8.3 100 0.0 W 24 35 13 19 1014.4 1014.8 12.4
25/05:30am 8.3 3.0 8.3 100 0.0 W 26 35 14 19 1014.0 1014.4 12.4
25/05:00am 8.4 2.0 8.4 100 0.0 W 32 44 17 24 1013.4 - 12.2
25/04:30am 8.3 1.6 8.3 100 0.0 WNW 33 44 18 24 1013.3 1013.7 12.2
25/04:00am 8.3 2.6 8.3 100 0.0 WNW 28 37 15 20 1013.1 - 12.0
25/03:30am 8.2 -1.0 8.2 100 0.0 W 46 65 25 35 1011.8 1012.2 12.0
25/03:25am 8.1 -1.1 8.1 100 0.0 W 46 65 25 35 1011.5 - 12.0
25/03:00am 8.1 0.3 8.1 100 0.0 WNW 39 52 21 28 1012.0 1012.4 12.0
25/02:35am 8.1 1.6 8.1 100 0.0 WNW 32 50 17 27 1012.6 - 11.6
25/02:30am 8.1 2.0 8.1 100 0.0 WNW 30 43 16 23 1012.7 1013.1 11.6
25/02:00am 8.3 1.8 8.3 100 0.0 WNW 32 46 17 25 1012.6 - 9.2
25/01:30am 8.4 2.0 8.4 100 0.0 WNW 32 50 17 27 1012.4 1012.8 8.4
25/01:29am 8.4 2.0 8.4 100 0.0 WNW 32 50 17 27 1012.3 - 8.4
25/01:00am 8.4 2.0 8.4 100 0.0 NW 32 46 17 25 1012.1 - 8.0
25/12:30am 8.4 2.7 8.4 100 0.0 WNW 28 44 15 24 1012.0 1012.4 7.0
25/12:00am 8.4 2.3 8.4 100 0.0 WNW 30 43 16 23 1012.0 1012.4 5.0
 
Date/Time
CST
Tmp

°C
App
Tmp
°C
Dew
Point
°C
Rel
Hum
%
Delta-T

°C
Wind Press
QNH
hPa
Press
MSL
hPa
Rain
since
9 am
mm
Dir
 
Spd
km/h
Gust
km/h
Spd
kts
Gust
kts
24/11:41pm 8.5 2.1 8.5 100 0.0 WNW 32 50 17 27 1011.9 - 4.8
24/11:30pm 8.5 2.5 8.5 100 0.0 WNW 30 43 16 23 1012.0 1012.4 4.4
24/11:02pm 8.6 2.6 8.6 100 0.0 WNW 30 48 16 26 1011.9 - 4.4
24/11:00pm 8.6 2.2 8.6 100 0.0 WNW 32 48 17 26 1011.8 - 4.4
24/10:30pm 8.7 2.7 8.7 100 0.0 WNW 30 44 16 24 1011.6 1012.0 4.4
24/10:00pm 8.9 2.6 8.9 100 0.0 WNW 32 46 17 25 1011.6 - 4.4
24/09:37pm 9.1 3.2 9.1 100 0.0 WNW 30 48 16 26 1011.5 - 4.0
24/09:30pm 9.1 2.6 9.1 100 0.0 WNW 33 48 18 26 1011.2 1011.5 4.0
24/09:18pm 9.1 2.8 9.1 100 0.0 WNW 32 50 17 27 1011.1 - 4.0
24/09:00pm 9.1 2.8 9.1 100 0.0 WNW 32 46 17 25 1011.1 1011.4 3.8
24/08:30pm 9.0 2.1 9.0 100 0.0 W 35 54 19 29 1010.7 1011.1 3.4
24/08:00pm 9.0 1.8 9.0 100 0.0 WNW 37 57 20 31 1010.2 - 3.4
24/07:36pm 9.1 2.3 9.1 100 0.0 WNW 35 57 19 31 1010.1 - 3.4
24/07:30pm 9.1 2.3 9.1 100 0.0 WNW 35 50 19 27 1010.1 1010.5 3.4
24/07:03pm 9.1 3.2 9.1 100 0.0 WNW 30 48 16 26 1010.0 - 3.4
24/07:00pm 9.1 3.2 9.1 100 0.0 WNW 30 46 16 25 1010.0 - 3.4
24/06:49pm 9.2 3.3 9.2 100 0.0 WNW 30 50 16 27 1009.9 - 3.4
24/06:30pm 9.3 3.5 9.3 100 0.0 WNW 30 43 16 23 1009.6 1009.9 3.4
24/06:00pm 9.3 3.8 9.3 100 0.0 WNW 28 39 15 21 1009.4 1009.7 3.4
24/05:33pm 9.4 3.0 9.4 100 0.0 WNW 33 52 18 28 1008.9 - 3.4
24/05:30pm 9.5 3.3 9.5 100 0.0 WNW 32 48 17 26 1009.1 1009.4 3.4
24/05:02pm 9.4 2.6 9.4 100 0.0 W 35 54 19 29 1008.5 - 3.4
24/05:00pm 9.4 2.3 9.4 100 0.0 W 37 52 20 28 1008.5 - 3.4
24/04:30pm 9.4 2.3 9.4 100 0.0 W 37 56 20 30 1007.8 1008.1 3.4
24/04:06pm 9.4 2.6 9.4 100 0.0 W 35 56 19 30 1007.6 - 3.4
24/04:00pm 9.5 2.8 9.5 100 0.0 WNW 35 52 19 28 1007.7 - 2.6
24/03:30pm 9.6 2.9 9.6 100 0.0 WNW 35 54 19 29 1007.3 1007.6 1.8
24/03:17pm 9.6 3.5 9.6 100 0.0 WNW 32 50 17 27 1007.1 - 1.8
24/03:00pm 9.7 2.6 9.7 100 0.0 WNW 37 54 20 29 1006.7 1007.1 1.8
24/02:30pm 9.5 2.0 9.5 100 0.0 WNW 39 59 21 32 1006.6 1007.0 1.2
24/02:00pm 9.5 3.3 9.5 100 0.0 WNW 32 50 17 27 1006.5 - 0.8
24/01:33pm 9.4 3.6 9.4 100 0.0 W 30 50 16 27 1006.4 - 0.8
24/01:30pm 9.4 3.6 9.4 100 0.0 WNW 30 41 16 22 1006.5 1006.9 0.8
24/01:00pm 9.6 3.5 9.6 100 0.0 WNW 32 43 17 23 1006.5 - 0.8
24/12:36pm 9.2 3.7 9.2 100 0.0 W 28 46 15 25 1006.4 - 0.8
24/12:30pm 9.4 4.0 9.4 100 0.0 WNW 28 43 15 23 1006.6 1007.0 0.8
24/12:02pm 8.9 3.3 8.9 100 0.0 WNW 28 50 15 27 1007.0 - 0.6
24/12:00pm 8.9 3.3 8.9 100 0.0 WNW 28 37 15 20 1007.1 1007.4 0.6
24/11:30am 8.8 2.3 8.8 100 0.0 WNW 33 48 18 26 1007.3 1007.6 0.4
24/11:00am 8.5 2.8 8.5 100 0.0 WNW 28 43 15 23 1007.3 - 0.0
24/10:30am 8.1 1.6 8.1 100 0.0 WNW 32 50 17 27 1007.3 1007.6 0.0
24/10:06am 7.8 1.0 7.8 100 0.0 WNW 33 52 18 28 1007.1 - 0.0
24/10:00am 7.8 1.2 7.8 100 0.0 WNW 32 46 17 25 1007.1 - 0.0
24/09:38am 7.7 1.1 7.7 100 0.0 WNW 32 50 17 27 1006.8 - 0.0
24/09:30am 7.7 0.9 7.7 100 0.0 WNW 33 46 18 25 1006.6 1007.0 0.0
24/09:00am 7.5 0.7 7.5 100 0.0 WNW 33 59 18 32 1005.9 1006.2 16.6
24/08:30am 7.6 1.0 7.6 100 0.0 NW 32 50 17 27 1005.6 1005.9 16.6
24/08:25am 7.6 1.3 7.6 100 0.0 NW 30 48 16 26 1005.6 - 16.6
24/08:00am 7.7 1.1 7.7 100 0.0 WNW 32 46 17 25 1005.3 - 16.0
24/07:30am 8.0 0.1 8.0 100 0.0 WNW 39 61 21 33 1004.5 1004.8 15.4
24/07:00am 8.4 2.3 8.4 100 0.0 NW 30 50 16 27 1004.4 - 14.6
24/06:58am 8.4 2.3 8.4 100 0.0 NW 30 50 16 27 1004.4 - 14.4
24/06:30am 8.0 2.2 8.0 100 0.0 N 28 39 15 21 1004.3 1004.6 13.4
24/06:00am 7.9 1.7 7.9 100 0.0 N 30 43 16 23 1004.2 1004.5 12.0
24/05:51am 7.9 1.3 7.9 100 0.0 N 32 50 17 27 1004.3 - 11.6
24/05:30am 7.7 0.9 7.7 100 0.0 N 33 44 18 24 1004.4 1004.7 11.6
24/05:13am 7.7 1.1 7.7 100 0.0 N 32 50 17 27 1004.4 - 11.6
24/05:00am 7.7 0.9 7.7 100 0.0 N 33 50 18 27 1004.5 - 11.2
24/04:30am 7.7 0.5 7.6 99 0.0 N 35 54 19 29 1004.2 1004.5 10.6
24/04:04am 7.8 1.0 7.7 99 0.0 NNE 33 52 18 28 1004.3 - 10.2
24/04:00am 7.7 1.1 7.6 99 0.0 NNE 32 43 17 23 1004.4 - 10.2
24/03:32am 7.9 2.0 7.5 97 0.2 NNE 28 46 15 25 1004.7 - 10.2
24/03:30am 7.8 1.9 7.5 98 0.1 NNE 28 41 15 22 1004.7 1005.0 10.2
24/03:00am 7.8 0.0 6.6 92 0.6 NNE 37 54 20 29 1005.1 1005.4 10.0
24/02:56am 8.1 0.7 6.6 90 0.7 NNE 35 54 19 29 1005.1 - 9.8
24/02:30am 8.3 -0.4 5.8 84 1.2 NNE 41 50 22 27 1005.4 1005.7 9.8
24/02:09am 8.4 -0.3 5.9 84 1.2 NE 41 59 22 32 1005.7 - 9.8
24/02:00am 8.5 -0.6 5.8 83 1.3 NNE 43 57 23 31 1005.8 - 9.8
24/01:30am 7.7 0.2 6.2 90 0.7 NE 35 46 19 25 1006.1 1006.4 9.8
24/01:00am 7.7 -0.2 6.3 91 0.7 NE 37 56 20 30 1006.5 - 9.8
24/12:54am 7.9 0.0 6.4 90 0.7 ENE 37 56 20 30 1006.7 - 9.8
24/12:30am 7.2 -1.4 6.6 96 0.3 ENE 41 56 22 30 1007.3 1007.6 9.6
24/12:00am 6.7 -0.7 6.6 99 0.0 ENE 35 50 19 27 1007.5 1007.8 9.6
 
Date/Time
CST
Tmp

°C
App
Tmp
°C
Dew
Point
°C
Rel
Hum
%
Delta-T

°C
Wind Press
QNH
hPa
Press
MSL
hPa
Rain
since
9 am
mm
Dir
 
Spd
km/h
Gust
km/h
Spd
kts
Gust
kts
23/11:31pm 6.4 -0.5 6.3 99 0.0 ENE 32 50 17 27 1008.3 - 9.4
23/11:30pm 6.4 -0.7 6.3 99 0.0 ENE 33 50 18 27 1008.3 1008.7 9.4
23/11:02pm 6.5 -1.4 6.4 99 0.0 ENE 37 56 20 30 1009.1 - 9.4
23/11:00pm 6.7 -1.5 6.6 99 0.0 ENE 39 56 21 30 1008.7 - 9.4
23/10:58pm 6.6 -1.2 6.5 99 0.0 ENE 37 56 20 30 1008.5 - 9.4
23/10:30pm 6.5 -1.0 6.4 99 0.0 ENE 35 48 19 26 1009.4 1009.7 9.4
23/10:00pm 6.9 -0.9 6.8 99 0.0 ENE 37 48 20 26 1010.2 - 9.4
23/09:40pm 7.0 -0.7 6.9 99 0.0 ENE 37 57 20 31 1010.4 - 9.4
23/09:30pm 6.5 -0.6 6.4 99 0.0 ENE 33 43 18 23 1010.7 1011.1 9.4
23/09:00pm 6.7 0.6 6.6 99 0.0 NE 28 35 15 19 1011.9 1012.3 9.0
23/08:30pm 6.9 0.4 6.5 97 0.2 NE 30 43 16 23 1012.1 1012.5 8.0
23/08:00pm 6.9 0.0 6.3 96 0.3 NE 32 37 17 20 1012.2 - 6.8
23/07:30pm 6.9 2.2 6.0 94 0.4 NNE 20 26 11 14 1012.4 1012.8 5.6
23/07:00pm 6.9 1.0 6.0 94 0.4 NE 26 32 14 17 1012.1 - 4.6
23/06:30pm 7.2 -0.5 5.5 89 0.8 ENE 35 44 19 24 1011.8 1012.2 3.0
23/06:00pm 8.1 0.8 4.5 78 1.6 NE 32 41 17 22 1012.0 1012.4 1.8
23/05:35pm 8.8 0.0 3.4 69 2.4 ENE 39 57 21 31 1011.6 - 1.6
23/05:30pm 8.7 -0.5 3.5 70 2.3 ENE 41 57 22 31 1011.4 1011.8 1.6
23/05:00pm 8.1 0.2 4.3 77 1.7 ENE 35 52 19 28 1011.3 - 1.6
23/04:30pm 8.0 -0.6 4.4 78 1.6 ENE 39 52 21 28 1011.2 1011.5 1.6
23/04:15pm 8.2 -1.2 4.4 77 1.7 ENE 43 61 23 33 1011.2 - 1.6
23/04:00pm 8.1 -0.9 4.5 78 1.6 ENE 41 50 22 27 1011.2 - 1.6
23/03:30pm 8.1 -0.9 4.7 79 1.5 ENE 41 57 22 31 1011.4 1011.8 1.6
23/03:26pm 8.0 -0.2 4.6 79 1.5 ENE 37 57 20 31 1011.4 - 1.6
23/03:00pm 7.9 -0.5 5.5 85 1.1 ENE 39 56 21 30 1011.4 1011.8 1.6
23/02:58pm 8.0 0.0 5.5 84 1.2 ENE 37 56 20 30 1011.3 - 1.6
23/02:30pm 7.8 -0.5 6.1 89 0.8 ENE 39 50 21 27 1011.6 1012.0 1.6
23/02:00pm 7.8 1.9 7.5 98 0.1 E 28 37 15 20 1012.4 - 1.6
23/01:30pm 8.3 4.9 7.5 95 0.4 NE 15 22 8 12 1014.1 1014.5 1.2
23/01:00pm 8.8 4.7 6.2 84 1.2 NE 17 22 9 12 1014.6 - 0.4
23/12:30pm 9.7 4.9 4.5 70 2.4 NNE 19 26 10 14 1015.2 1015.6 0.0
23/12:00pm 10.5 5.3 3.5 62 3.2 N 20 30 11 16 1016.0 1016.4 0.0
23/11:30am 10.7 5.6 3.3 60 3.3 N 19 28 10 15 1016.8 1017.3 0.0
23/11:00am 11.7 6.3 2.5 53 4.1 N 20 30 11 16 1017.5 - 0.0
23/10:30am 11.8 5.9 2.0 51 4.3 NNE 22 28 12 15 1017.5 1017.9 0.0
23/10:00am 11.1 4.9 1.9 53 4.0 NNE 24 32 13 17 1017.8 - 0.0
23/09:30am 9.8 5.0 2.6 61 3.2 NE 17 24 9 13 1017.9 1018.4 0.0
23/09:00am 8.9 3.4 1.6 60 3.1 NE 20 28 11 15 1017.7 1018.1 0.0
23/08:30am 8.3 2.9 1.2 61 3.0 ENE 19 22 10 12 1017.5 1017.9 0.0
23/08:00am 8.2 2.8 1.1 61 3.0 ENE 19 26 10 14 1017.7 - 0.0
23/07:30am 8.3 2.9 1.0 60 3.0 ENE 19 24 10 13 1017.9 1018.4 0.0
23/07:00am 8.0 2.4 1.2 62 2.8 ENE 20 26 11 14 1017.9 - 0.0
23/06:30am 8.2 2.6 1.4 62 2.9 ENE 20 28 11 15 1017.9 1018.4 0.0
23/06:00am 8.5 2.5 1.2 60 3.1 ENE 22 32 12 17 1017.8 1018.3 0.0
23/05:30am 8.7 1.9 1.1 59 3.2 ENE 26 35 14 19 1017.7 1018.1 0.0
23/05:00am 8.5 1.7 1.0 59 3.1 ENE 26 33 14 18 1017.8 - 0.0
23/04:30am 8.6 2.2 0.8 58 3.2 ENE 24 32 13 17 1018.0 1018.5 0.0
23/04:00am 8.6 1.8 0.6 57 3.3 ENE 26 33 14 18 1018.5 - 0.0
23/03:30am 8.7 1.9 0.7 57 3.3 ENE 26 35 14 19 1018.5 1019.0 0.0
23/03:00am 8.7 1.9 0.9 58 3.3 ENE 26 39 14 21 1018.8 1019.3 0.0
23/02:30am 9.0 1.5 1.2 58 3.3 ENE 30 37 16 20 1019.0 1019.5 0.0
23/02:00am 8.8 1.3 1.2 59 3.2 ENE 30 37 16 20 1019.6 - 0.0
23/01:30am 8.7 1.2 1.1 59 3.2 ENE 30 35 16 19 1019.5 1020.0 0.0
23/01:00am 8.7 0.8 1.1 59 3.2 NE 32 41 17 22 1019.3 - 0.0
23/12:30am 8.7 0.6 1.1 59 3.2 NE 33 44 18 24 1019.7 1020.2 0.0
23/12:00am 8.5 1.1 1.6 62 2.9 NE 30 37 16 20 1020.3 1020.8 0.0
 
Date/Time
CST
Tmp

°C
App
Tmp
°C
Dew
Point
°C
Rel
Hum
%
Delta-T

°C
Wind Press
QNH
hPa
Press
MSL
hPa
Rain
since
9 am
mm
Dir
 
Spd
km/h
Gust
km/h
Spd
kts
Gust
kts
22/11:30pm 8.1 1.1 1.9 65 2.6 ENE 28 37 15 20 1020.6 1021.1 0.0
22/11:00pm 8.3 1.3 2.1 65 2.7 ENE 28 37 15 20 1020.6 - 0.0
22/10:30pm 8.5 1.1 2.1 64 2.7 ENE 30 37 16 20 1020.7 1021.2 0.0
22/10:00pm 8.9 2.0 2.3 63 2.9 ENE 28 39 15 21 1020.7 - 0.0
22/09:30pm 9.2 2.2 2.1 61 3.1 ENE 28 37 15 20 1020.7 1021.2 0.0
22/09:00pm 9.4 2.8 2.0 60 3.2 ENE 26 35 14 19 1021.2 1021.7 0.0
22/08:30pm 9.8 3.1 1.7 57 3.5 ENE 26 32 14 17 1020.9 1021.5 0.0
22/08:00pm 9.9 3.6 1.8 57 3.5 ENE 24 28 13 15 1021.0 - 0.0
22/07:30pm 9.7 3.5 2.1 59 3.3 ENE 24 30 13 16 1021.2 1021.7 0.0
22/07:00pm 9.8 3.7 2.6 61 3.2 ENE 24 30 13 16 1021.2 - 0.0
22/06:30pm 9.8 4.1 2.9 62 3.0 ENE 22 28 12 15 1021.2 1021.7 0.0
22/06:00pm 10.3 4.7 3.6 63 3.0 ENE 22 28 12 15 1021.0 1021.6 0.0
22/05:30pm 10.3 5.8 4.0 65 2.9 ENE 17 22 9 12 1021.2 1021.7 0.0
22/05:00pm 11.2 6.3 4.2 62 3.2 NE 19 24 10 13 1020.8 - 0.0
22/04:30pm 11.9 7.1 4.9 62 3.3 NE 19 28 10 15 1020.8 1021.3 0.0

Latest Capital City Observations: Canberra | Sydney | Melbourne | Brisbane | Adelaide | Perth | Hobart | Darwin

Other Formats:

Comma delimited format used in spreadsheet applications
http://www.bom.gov.au/fwo/IDS60901/IDS60901.94678.axf

JavaScript Object Notation format (JSON) in row-major order
http://www.bom.gov.au/fwo/IDS60901/IDS60901.94678.json